createdAt,value
2023-04-24T00:02:12.246Z,5.40
2023-04-24T00:04:42.632Z,6.70
2023-04-24T00:07:10.034Z,6.20
2023-04-24T00:09:37.625Z,7.80
2023-04-24T00:12:05.722Z,7.80
2023-04-24T00:14:33.094Z,11.40
2023-04-24T00:17:00.521Z,7.70
2023-04-24T00:19:27.833Z,7.30
2023-04-24T00:21:55.589Z,4.50
2023-04-24T00:24:22.810Z,6.30
2023-04-24T00:26:50.103Z,5.50
2023-04-24T00:29:17.423Z,6.70
2023-04-24T00:31:44.689Z,9.90
2023-04-24T00:34:12.954Z,6.90
2023-04-24T00:36:40.530Z,8.00
2023-04-24T00:39:09.862Z,7.10
2023-04-24T00:41:37.478Z,8.00
2023-04-24T00:44:04.841Z,8.70
2023-04-24T00:46:32.952Z,8.10
2023-04-24T00:49:00.667Z,9.90
2023-04-24T00:51:28.600Z,9.40
2023-04-24T00:53:56.515Z,6.30
2023-04-24T00:56:24.603Z,6.30
2023-04-24T00:58:52.428Z,5.40
2023-04-24T01:01:23.506Z,8.80
2023-04-24T01:03:52.937Z,6.40
2023-04-24T01:06:21.552Z,7.00
2023-04-24T01:08:49.271Z,6.30
2023-04-24T01:11:16.529Z,6.90
2023-04-24T01:13:43.913Z,8.70
2023-04-24T01:16:11.382Z,7.20
2023-04-24T01:18:39.438Z,6.80
2023-04-24T01:21:09.655Z,6.40
2023-04-24T01:23:36.910Z,6.30
2023-04-24T01:26:04.351Z,8.00
2023-04-24T01:28:31.806Z,5.40
2023-04-24T01:30:59.519Z,6.30
2023-04-24T01:33:27.104Z,7.90
2023-04-24T01:35:55.068Z,7.20
2023-04-24T01:38:22.753Z,7.60
2023-04-24T01:40:51.213Z,7.20
2023-04-24T01:43:19.136Z,7.10
2023-04-24T01:45:46.404Z,6.80
2023-04-24T01:48:14.551Z,4.00
2023-04-24T01:50:42.050Z,5.30
2023-04-24T01:53:09.357Z,3.60
2023-04-24T01:55:36.516Z,3.10
2023-04-24T01:58:04.071Z,5.40
2023-04-24T02:00:31.365Z,5.10
2023-04-24T02:02:58.745Z,7.20
2023-04-24T02:05:26.197Z,8.50
2023-04-24T02:07:53.505Z,7.00
2023-04-24T02:10:20.845Z,4.80
2023-04-24T02:12:48.222Z,7.00
2023-04-24T02:15:16.286Z,5.50
2023-04-24T02:17:43.580Z,6.10
2023-04-24T02:20:11.237Z,5.30
2023-04-24T02:22:38.598Z,4.40
2023-04-24T02:25:06.452Z,4.90
2023-04-24T02:27:33.767Z,4.40
2023-04-24T02:30:01.764Z,4.40
2023-04-24T02:32:29.031Z,6.60
2023-04-24T02:34:56.272Z,6.60
2023-04-24T02:37:23.502Z,4.20
2023-04-24T02:39:50.859Z,4.60
2023-04-24T02:42:18.132Z,6.10
2023-04-24T02:44:45.361Z,3.80
2023-04-24T02:47:12.602Z,4.80
2023-04-24T02:49:39.955Z,4.80
2023-04-24T02:52:07.326Z,3.80
2023-04-24T02:54:34.557Z,4.90
2023-04-24T02:57:02.302Z,3.40
2023-04-24T02:59:30.116Z,3.70
2023-04-24T03:01:57.352Z,5.40
2023-04-24T03:04:24.722Z,6.40
2023-04-24T03:06:54.082Z,4.30
2023-04-24T03:09:22.404Z,6.50
2023-04-24T03:11:50.662Z,5.80
2023-04-24T03:14:18.049Z,6.20
2023-04-24T03:16:45.853Z,5.10
2023-04-24T03:19:13.658Z,8.60
2023-04-24T03:21:41.859Z,7.30
2023-04-24T03:24:10.270Z,8.00
2023-04-24T03:26:37.456Z,4.70
2023-04-24T03:29:04.745Z,5.40
2023-04-24T03:31:32.112Z,6.40
2023-04-24T03:33:59.497Z,6.00
2023-04-24T03:36:27.283Z,9.30
2023-04-24T03:38:54.545Z,5.90
2023-04-24T03:41:23.190Z,7.80
2023-04-24T03:43:50.932Z,7.50
2023-04-24T03:46:18.335Z,8.70
2023-04-24T03:48:48.680Z,9.20
2023-04-24T03:51:16.236Z,7.40
2023-04-24T03:53:43.591Z,8.90
2023-04-24T03:56:10.860Z,7.60
2023-04-24T03:58:38.131Z,10.10
2023-04-24T04:01:05.393Z,8.50
2023-04-24T04:03:32.788Z,8.50
2023-04-24T04:06:00.637Z,8.70
2023-04-24T04:08:27.818Z,8.90
2023-04-24T04:10:55.098Z,9.40
2023-04-24T04:13:22.550Z,9.10
2023-04-24T04:15:49.993Z,9.70
2023-04-24T04:18:17.430Z,8.40
2023-04-24T04:20:44.720Z,8.90
2023-04-24T04:23:12.078Z,9.80
2023-04-24T04:25:39.351Z,8.30
2023-04-24T04:28:06.722Z,10.20
2023-04-24T04:30:33.985Z,8.50
2023-04-24T04:33:01.648Z,8.70
2023-04-24T04:35:29.036Z,8.10
2023-04-24T04:38:00.130Z,10.30
2023-04-24T04:40:29.087Z,8.80
2023-04-24T04:42:56.769Z,11.50
2023-04-24T04:45:25.480Z,8.70
2023-04-24T04:47:52.795Z,12.30
2023-04-24T04:50:20.725Z,11.50
2023-04-24T04:52:48.178Z,9.00
2023-04-24T04:55:15.982Z,11.50
2023-04-24T04:57:43.775Z,12.80
2023-04-24T05:00:12.266Z,10.30
2023-04-24T05:02:40.539Z,14.20
2023-04-24T05:05:08.821Z,12.80
2023-04-24T05:07:37.210Z,15.10
2023-04-24T05:10:04.951Z,12.80
2023-04-24T05:12:32.313Z,15.10
2023-04-24T05:14:59.723Z,10.60
2023-04-24T05:17:27.241Z,12.80
2023-04-24T05:19:54.654Z,12.00
2023-04-24T05:22:22.437Z,12.20
2023-04-24T05:24:49.754Z,11.30
2023-04-24T05:27:17.229Z,11.80
2023-04-24T05:29:45.352Z,16.20
2023-04-24T05:32:12.952Z,12.20
2023-04-24T05:34:40.241Z,11.30
2023-04-24T05:37:09.946Z,10.80
2023-04-24T05:39:37.723Z,11.70
2023-04-24T05:42:05.992Z,10.80
2023-04-24T05:44:33.428Z,15.60
2023-04-24T05:47:01.876Z,10.40
2023-04-24T05:49:29.228Z,10.40
2023-04-24T05:51:56.456Z,10.20
2023-04-24T05:54:23.778Z,9.20
2023-04-24T05:56:52.107Z,12.90
2023-04-24T05:59:20.164Z,8.10
2023-04-24T06:01:47.947Z,9.50
2023-04-24T06:04:15.918Z,9.60
2023-04-24T06:06:43.443Z,7.70
2023-04-24T06:09:10.747Z,8.10
2023-04-24T06:11:38.045Z,9.80
2023-04-24T06:14:05.606Z,7.90
2023-04-24T06:16:32.900Z,6.90
2023-04-24T06:19:00.457Z,7.70
2023-04-24T06:21:28.750Z,6.10
2023-04-24T06:23:57.243Z,6.40
2023-04-24T06:26:26.129Z,6.60
2023-04-24T06:28:54.980Z,6.70
2023-04-24T06:31:22.495Z,6.20
2023-04-24T06:33:50.663Z,7.90
2023-04-24T06:36:18.377Z,9.90
2023-04-24T06:38:46.354Z,6.70
2023-04-24T06:41:14.311Z,6.90
2023-04-24T06:43:41.863Z,6.50
2023-04-24T06:46:09.226Z,5.70
2023-04-24T06:48:36.657Z,6.50
2023-04-24T06:51:04.212Z,5.90
2023-04-24T06:53:31.483Z,6.00
2023-04-24T06:55:58.777Z,7.30
2023-04-24T06:58:26.664Z,5.60
2023-04-24T07:00:53.994Z,6.20
2023-04-24T07:03:21.422Z,5.10
2023-04-24T07:05:50.393Z,4.70
2023-04-24T07:08:19.191Z,5.30
2023-04-24T07:10:46.494Z,4.90
2023-04-24T07:13:13.786Z,6.60
2023-04-24T07:15:42.146Z,5.20
2023-04-24T07:18:09.737Z,4.90
2023-04-24T07:20:37.064Z,4.20
2023-04-24T07:23:04.414Z,4.20
2023-04-24T07:25:32.509Z,4.30
2023-04-24T07:28:00.685Z,5.10
2023-04-24T07:30:29.957Z,6.20
2023-04-24T07:32:57.405Z,5.40
2023-04-24T07:35:26.578Z,7.50
2023-04-24T07:37:56.982Z,10.50
2023-04-24T07:40:24.803Z,5.20
2023-04-24T07:42:52.211Z,6.30
2023-04-24T07:45:19.643Z,6.40
2023-04-24T07:47:47.181Z,4.70
2023-04-24T07:50:14.449Z,5.00
2023-04-24T07:52:41.739Z,3.30
2023-04-24T07:55:09.574Z,5.20
2023-04-24T07:57:37.676Z,5.70
2023-04-24T08:00:07.015Z,6.30
2023-04-24T08:02:34.589Z,3.80
2023-04-24T08:05:02.177Z,5.60
2023-04-24T08:07:29.628Z,3.20
2023-04-24T08:09:57.296Z,2.70
2023-04-24T08:12:24.585Z,2.40
2023-04-24T08:14:51.885Z,3.00
2023-04-24T08:17:19.181Z,7.30
2023-04-24T08:19:49.414Z,3.80
2023-04-24T08:22:17.335Z,5.10
2023-04-24T08:24:45.113Z,10.20
2023-04-24T08:27:12.387Z,2.40
2023-04-24T08:29:39.810Z,3.20
2023-04-24T08:32:07.990Z,2.50
2023-04-24T08:34:35.508Z,2.90
2023-04-24T08:37:04.199Z,2.80
2023-04-24T08:39:31.554Z,3.50
2023-04-24T08:42:06.329Z,3.40
2023-04-24T08:44:34.646Z,3.20
2023-04-24T08:47:03.833Z,3.90
2023-04-24T08:49:31.711Z,3.80
2023-04-24T08:52:00.849Z,3.10
2023-04-24T08:54:28.163Z,6.00
2023-04-24T08:57:02.681Z,4.10
2023-04-24T08:59:31.137Z,2.60
2023-04-24T09:01:59.144Z,4.40
2023-04-24T09:04:27.461Z,2.50
2023-04-24T09:06:59.640Z,1.90
2023-04-24T09:09:27.363Z,2.00
2023-04-24T09:11:58.502Z,3.60
2023-04-24T09:14:26.187Z,2.30
2023-04-24T09:16:53.536Z,3.00
2023-04-24T09:19:22.885Z,1.50
2023-04-24T09:21:50.218Z,1.70
2023-04-24T09:24:23.732Z,3.90
2023-04-24T09:27:00.315Z,1.80
2023-04-24T09:29:27.557Z,2.20
2023-04-24T09:31:55.521Z,5.30
2023-04-24T09:34:27.804Z,2.60
2023-04-24T09:36:55.841Z,3.10
2023-04-24T09:39:23.248Z,3.10
2023-04-24T09:41:57.973Z,6.80
2023-04-24T09:44:29.480Z,3.50
2023-04-24T09:46:58.893Z,2.60
2023-04-24T09:49:37.042Z,3.60
2023-04-24T09:52:06.375Z,2.20
2023-04-24T09:54:34.367Z,2.80
2023-04-24T09:57:01.736Z,2.00
2023-04-24T09:59:29.037Z,3.20
2023-04-24T10:01:57.907Z,3.90
2023-04-24T10:04:27.150Z,4.10
2023-04-24T10:06:57.500Z,1.80
2023-04-24T10:09:27.441Z,3.50
2023-04-24T10:11:56.162Z,4.00
2023-04-24T10:14:25.599Z,3.30
2023-04-24T10:33:35.136Z,1.50
2023-04-24T10:36:03.269Z,3.20
2023-04-24T10:38:31.361Z,2.40
2023-04-24T10:41:10.566Z,1.70
2023-04-24T10:43:37.824Z,2.80
2023-04-24T10:46:06.979Z,2.70
2023-04-24T10:48:34.911Z,2.70
2023-04-24T10:51:02.685Z,2.10
2023-04-24T10:53:31.390Z,1.70
2023-04-24T10:56:05.709Z,2.20
2023-04-24T10:58:47.483Z,3.50
2023-04-24T11:01:28.083Z,1.50
2023-04-24T11:04:00.832Z,1.80
2023-04-24T11:06:36.046Z,2.20
2023-04-24T11:09:08.587Z,1.80
2023-04-24T11:11:38.563Z,3.20
2023-04-24T11:14:07.927Z,1.60
2023-04-24T11:17:08.507Z,3.00
2023-04-24T11:19:35.746Z,3.20
2023-04-24T11:22:14.949Z,1.80
2023-04-24T11:24:47.894Z,4.10
2023-04-24T11:27:18.364Z,2.40
2023-04-24T11:29:57.600Z,1.50
2023-04-24T11:32:28.105Z,4.70
2023-04-24T11:34:59.447Z,2.90
2023-04-24T11:37:34.429Z,2.40
2023-04-24T11:40:02.379Z,3.70
2023-04-24T11:42:34.559Z,2.90
2023-04-24T11:45:03.260Z,1.40
2023-04-24T11:47:34.404Z,1.20
2023-04-24T11:50:02.720Z,1.00
2023-04-24T11:52:31.636Z,2.30
2023-04-24T11:54:59.455Z,2.10
2023-04-24T11:57:34.761Z,1.10
2023-04-24T12:00:04.567Z,0.80
2023-04-24T12:02:32.975Z,2.30
2023-04-24T12:05:00.658Z,2.60
2023-04-24T12:07:28.342Z,1.10
2023-04-24T12:10:01.203Z,1.60
2023-04-24T12:12:29.333Z,1.50
2023-04-24T12:14:59.790Z,2.30
2023-04-24T12:17:32.645Z,1.20
2023-04-24T12:20:02.402Z,0.80
2023-04-24T12:22:44.603Z,3.50
2023-04-24T12:25:12.807Z,4.00
2023-04-24T12:27:39.915Z,1.50
2023-04-24T12:30:10.966Z,0.60
2023-04-24T12:32:46.373Z,1.50
2023-04-24T12:35:14.450Z,1.40
2023-04-24T12:37:46.459Z,0.70
2023-04-24T12:40:15.767Z,0.80
2023-04-24T12:42:45.524Z,2.90
2023-04-24T12:45:13.523Z,1.50
2023-04-24T12:47:41.596Z,1.00
2023-04-24T12:50:11.018Z,0.60
2023-04-24T12:52:38.577Z,5.20
2023-04-24T12:55:09.221Z,1.60
2023-04-24T12:57:38.209Z,2.20
2023-04-24T13:00:07.356Z,3.30
2023-04-24T13:02:35.339Z,1.70
2023-04-24T13:05:03.498Z,1.40
2023-04-24T13:07:30.742Z,2.40
2023-04-24T13:10:15.994Z,5.40
2023-04-24T13:12:46.605Z,1.20
2023-04-24T13:15:14.534Z,1.40
2023-04-24T13:17:41.786Z,3.10
2023-04-24T13:20:09.331Z,2.90
2023-04-24T13:22:38.384Z,2.00
2023-04-24T13:25:07.325Z,4.50
2023-04-24T13:27:34.625Z,1.20
2023-04-24T13:30:02.084Z,0.50
2023-04-24T13:32:30.027Z,0.70
2023-04-24T13:34:58.071Z,1.70
2023-04-24T13:37:25.255Z,0.90
2023-04-24T13:39:52.696Z,1.60
2023-04-24T13:42:21.125Z,1.60
2023-04-24T13:44:48.882Z,1.20
2023-04-24T13:47:16.429Z,1.60
2023-04-24T13:49:43.565Z,1.10
2023-04-24T13:52:11.545Z,1.70
2023-04-24T13:54:38.900Z,0.40
2023-04-24T13:57:06.198Z,0.70
2023-04-24T13:59:33.430Z,1.40
2023-04-24T14:02:00.616Z,1.00
2023-04-24T14:04:27.979Z,1.40
2023-04-24T14:06:55.484Z,2.70
2023-04-24T14:09:22.792Z,2.10
2023-04-24T14:11:50.008Z,0.40
2023-04-24T14:14:17.160Z,0.60
2023-04-24T14:16:44.321Z,2.10
2023-04-24T14:19:11.520Z,0.30
2023-04-24T14:21:38.705Z,2.60
2023-04-24T14:24:06.026Z,1.50
2023-04-24T14:26:33.657Z,13.10
2023-04-24T14:29:13.607Z,9.30
2023-04-24T14:31:42.175Z,1.70
2023-04-24T14:34:09.724Z,2.80
2023-04-24T14:36:36.922Z,6.40
2023-04-24T14:39:08.319Z,4.30
2023-04-24T14:41:37.076Z,2.30
2023-04-24T14:44:04.838Z,2.00
2023-04-24T14:46:32.278Z,2.10
2023-04-24T14:48:59.685Z,3.20
2023-04-24T14:51:26.937Z,1.70
2023-04-24T14:53:54.274Z,6.50
2023-04-24T14:56:21.461Z,18.20
2023-04-24T14:58:48.689Z,9.80
2023-04-24T15:01:17.711Z,1.90
2023-04-24T15:03:46.215Z,3.30
2023-04-24T15:06:13.963Z,4.20
2023-04-24T15:08:41.243Z,3.20
2023-04-24T15:11:08.639Z,18.50
2023-04-24T15:13:36.007Z,7.90
2023-04-24T15:16:03.568Z,10.40
2023-04-24T15:18:30.870Z,7.50
2023-04-24T15:20:58.838Z,1.10
2023-04-24T15:23:26.284Z,0.40
2023-04-24T15:25:53.833Z,1.70
2023-04-24T15:28:23.107Z,2.70
2023-04-24T15:30:50.254Z,1.10
2023-04-24T15:33:17.535Z,1.00
2023-04-24T15:35:44.754Z,1.50
2023-04-24T15:38:12.073Z,0.80
2023-04-24T15:40:39.360Z,0.70
2023-04-24T15:43:06.570Z,1.20
2023-04-24T15:45:34.246Z,0.90
2023-04-24T15:48:01.858Z,0.60
2023-04-24T15:50:29.353Z,0.70
2023-04-24T15:52:56.652Z,1.30
2023-04-24T15:55:23.897Z,1.80
2023-04-24T15:57:51.132Z,2.20
2023-04-24T16:00:18.767Z,0.80
2023-04-24T16:02:46.574Z,2.10
2023-04-24T16:05:14.014Z,1.70
2023-04-24T16:07:41.392Z,1.40
2023-04-24T16:10:09.129Z,2.00
2023-04-24T16:12:36.755Z,18.70
2023-04-24T16:15:04.433Z,30.50
2023-04-24T16:17:31.619Z,84.70
2023-04-24T16:19:58.901Z,66.20
2023-04-24T16:22:26.223Z,17.60
2023-04-24T16:24:53.410Z,7.20
2023-04-24T16:27:20.597Z,2.90
2023-04-24T16:29:47.795Z,1.30
2023-04-24T16:32:14.906Z,1.90
2023-04-24T16:34:42.180Z,32.20
2023-04-24T16:37:09.519Z,10.40
2023-04-24T16:39:37.366Z,1.90
2023-04-24T16:42:05.504Z,6.60
2023-04-24T16:44:32.627Z,2.60
2023-04-24T16:47:00.072Z,1.90
2023-04-24T16:49:31.162Z,1.60
2023-04-24T16:51:59.841Z,1.70
2023-04-24T16:54:27.234Z,3.50
2023-04-24T16:56:54.904Z,2.90
2023-04-24T16:59:23.519Z,3.10
2023-04-24T17:01:51.126Z,3.60
2023-04-24T17:04:18.559Z,5.00
2023-04-24T17:06:45.987Z,5.00
2023-04-24T17:09:14.462Z,4.30
2023-04-24T17:11:42.673Z,8.20
2023-04-24T17:14:10.159Z,6.30
2023-04-24T17:16:38.062Z,3.90
2023-04-24T17:19:05.326Z,4.10
2023-04-24T17:21:33.083Z,5.10
2023-04-24T17:24:00.351Z,3.80
2023-04-24T17:26:28.885Z,2.50
2023-04-24T17:28:56.120Z,3.60
2023-04-24T17:31:23.457Z,10.60
2023-04-24T17:33:50.782Z,10.70
2023-04-24T17:36:18.156Z,14.10
2023-04-24T17:38:45.360Z,6.00
2023-04-24T17:41:12.561Z,5.10
2023-04-24T17:43:39.755Z,12.80
2023-04-24T17:46:08.041Z,15.50
2023-04-24T17:48:35.764Z,16.50
2023-04-24T17:51:03.045Z,23.80
2023-04-24T17:53:30.723Z,76.70
2023-04-24T17:56:01.972Z,72.20
2023-04-24T17:58:30.450Z,31.70
2023-04-24T18:00:57.653Z,35.40
2023-04-24T18:03:25.054Z,17.90
2023-04-24T18:05:52.366Z,4.10
2023-04-24T18:08:19.677Z,3.70
2023-04-24T18:10:47.007Z,61.90
2023-04-24T18:13:14.185Z,57.20
2023-04-24T18:15:44.095Z,9.20
2023-04-24T18:18:11.581Z,1.60
2023-04-24T18:20:39.725Z,2.00
2023-04-24T18:23:06.911Z,4.30
2023-04-24T18:25:34.180Z,1.50
2023-04-24T18:28:01.454Z,20.80
2023-04-24T18:30:31.252Z,29.60
2023-04-24T18:32:59.043Z,34.90
2023-04-24T18:35:26.954Z,37.70
2023-04-24T18:37:54.109Z,29.90
2023-04-24T18:40:21.355Z,34.40
2023-04-24T18:42:48.637Z,25.60
2023-04-24T18:45:15.926Z,29.40
2023-04-24T18:47:44.169Z,18.40
2023-04-24T18:50:12.035Z,20.80
2023-04-24T18:52:39.413Z,22.10
2023-04-24T18:55:07.263Z,5.20
2023-04-24T18:57:34.634Z,3.90
2023-04-24T19:00:01.975Z,5.20
2023-04-24T19:02:29.652Z,4.00
2023-04-24T19:04:56.955Z,2.90
2023-04-24T19:07:24.385Z,3.80
2023-04-24T19:09:51.727Z,4.10
2023-04-24T19:12:19.982Z,10.50
2023-04-24T19:14:49.196Z,5.40
2023-04-24T19:17:22.523Z,19.00
2023-04-24T19:19:49.735Z,10.90
2023-04-24T19:22:17.321Z,15.00
2023-04-24T19:24:45.085Z,14.00
2023-04-24T19:27:12.620Z,15.80
2023-04-24T19:29:42.080Z,11.50
2023-04-24T19:32:09.524Z,16.60
2023-04-24T19:34:38.382Z,20.10
2023-04-24T19:37:08.298Z,9.60
2023-04-24T19:39:35.767Z,16.20
2023-04-24T19:42:07.333Z,6.80
2023-04-24T19:44:35.034Z,6.10
2023-04-24T19:47:02.319Z,7.20
2023-04-24T19:49:29.446Z,4.40
2023-04-24T19:51:56.678Z,8.40
2023-04-24T19:54:24.427Z,9.40
2023-04-24T19:56:51.612Z,10.20
2023-04-24T19:59:19.208Z,15.30
2023-04-24T20:01:47.117Z,11.10
2023-04-24T20:04:14.621Z,16.60
2023-04-24T20:06:41.929Z,19.10
2023-04-24T20:09:10.120Z,16.80
2023-04-24T20:11:37.374Z,17.80
2023-04-24T20:14:04.586Z,15.40
2023-04-24T20:16:32.381Z,14.70
2023-04-24T20:18:59.734Z,14.20
2023-04-24T20:21:28.031Z,5.60
2023-04-24T20:23:55.417Z,2.90
2023-04-24T20:26:22.699Z,2.40
2023-04-24T20:28:50.155Z,4.80
2023-04-24T20:31:17.929Z,1.90
2023-04-24T20:33:45.798Z,3.00
2023-04-24T20:36:13.050Z,3.80
2023-04-24T20:38:40.222Z,4.80
2023-04-24T20:41:08.974Z,3.60
2023-04-24T20:43:36.555Z,3.20
2023-04-24T20:46:03.850Z,4.20
2023-04-24T20:48:31.317Z,3.80
2023-04-24T20:50:58.540Z,4.00
2023-04-24T20:53:25.816Z,14.20
2023-04-24T20:55:53.065Z,12.30
2023-04-24T20:58:22.266Z,3.20
2023-04-24T21:00:51.082Z,2.70
2023-04-24T21:03:18.508Z,3.90
2023-04-24T21:05:45.985Z,5.10
2023-04-24T21:08:14.046Z,2.80
2023-04-24T21:10:41.177Z,3.00
2023-04-24T21:13:08.368Z,3.10
2023-04-24T21:15:35.897Z,3.70
2023-04-24T21:18:03.742Z,1.70
2023-04-24T21:20:31.156Z,1.10
2023-04-24T21:22:58.363Z,1.60
2023-04-24T21:25:26.585Z,3.50
2023-04-24T21:27:54.004Z,2.70
2023-04-24T21:30:22.144Z,8.70
2023-04-24T21:32:49.475Z,4.70
2023-04-24T21:35:16.796Z,6.30
2023-04-24T21:37:44.147Z,2.00
2023-04-24T21:40:11.613Z,2.70
2023-04-24T21:42:39.827Z,2.00
2023-04-24T21:45:07.626Z,5.10
2023-04-24T21:47:35.156Z,3.60
2023-04-24T21:50:02.420Z,1.30
2023-04-24T21:52:29.641Z,1.50
2023-04-24T21:54:56.912Z,3.40
2023-04-24T21:57:24.172Z,1.10
2023-04-24T21:59:51.662Z,1.40
2023-04-24T22:02:19.059Z,2.30
2023-04-24T22:04:46.617Z,1.60
2023-04-24T22:07:14.001Z,3.10
2023-04-24T22:09:41.141Z,2.90
2023-04-24T22:12:08.560Z,2.30
2023-04-24T22:14:35.741Z,2.20
2023-04-24T22:17:03.076Z,1.50
2023-04-24T22:19:30.389Z,1.30
2023-04-24T22:21:59.524Z,1.40
2023-04-24T22:24:27.439Z,1.50
2023-04-24T22:26:54.641Z,2.70
2023-04-24T22:29:21.968Z,3.30
2023-04-24T22:31:50.641Z,1.80
2023-04-24T22:34:18.563Z,2.20
2023-04-24T22:36:45.823Z,2.20
2023-04-24T22:39:15.961Z,0.90
2023-04-24T22:41:43.764Z,2.80
2023-04-24T22:44:11.497Z,11.40
2023-04-24T22:46:38.906Z,3.50
2023-04-24T22:49:06.372Z,4.40
2023-04-24T22:51:33.849Z,2.30
2023-04-24T22:54:03.684Z,3.10
2023-04-24T22:56:31.926Z,4.10
2023-04-24T22:58:59.505Z,2.20
2023-04-24T23:01:27.886Z,3.20
2023-04-24T23:03:55.330Z,4.70
2023-04-24T23:06:22.581Z,5.20
2023-04-24T23:08:49.848Z,0.90
2023-04-24T23:11:17.371Z,0.90
2023-04-24T23:13:44.707Z,2.30
2023-04-24T23:16:12.838Z,3.20
2023-04-24T23:18:40.027Z,6.70
2023-04-24T23:21:07.341Z,4.40
2023-04-24T23:23:34.727Z,1.80
2023-04-24T23:26:02.166Z,1.20
2023-04-24T23:28:29.475Z,1.80
2023-04-24T23:30:56.742Z,1.60
2023-04-24T23:33:24.091Z,3.20
2023-04-24T23:35:52.740Z,1.80
2023-04-24T23:38:19.931Z,2.30
2023-04-24T23:40:47.227Z,1.20
2023-04-24T23:43:14.455Z,2.20
2023-04-24T23:45:42.280Z,2.80
2023-04-24T23:48:09.494Z,1.80
2023-04-24T23:50:36.689Z,4.70
2023-04-24T23:53:04.413Z,6.80
2023-04-24T23:55:32.046Z,10.40
2023-04-24T23:57:59.518Z,5.00
